Time;durP1;ratioP1;P1;durP2;ratioP2;P2;SDS_P1;SDS_P2;PMS_P1;PMS_P2;Temp;Humidity;BMP_temperature;BMP_pressure;BME280_temperature;BME280_humidity;BME280_pressure;Samples;Min_cycle;Max_cycle;Signal;HPM_P1;HPM_P2
2023/04/02 00:00:15;;;;;;;;;;;;;;;-142.25;100.00;58004.16;4913122;29;20364;-67
2023/04/02 00:02:44;;;;;;;;;;;;;;;-142.25;100.00;58004.16;4912791;29;19923;-68
2023/04/02 00:05:18;;;;;;;;;;;;;;;-142.25;100.00;58004.16;4913648;28;20409;-66
2023/04/02 00:07:51;;;;;;;;;;;;;;;-142.25;100.00;58004.16;4911145;29;19930;-68
2023/04/02 00:10:29;;;;;;;;;;;;;;;-142.25;100.00;58004.16;4913465;29;19923;-68
2023/04/02 00:13:02;;;;;;;;;;;;;;;-142.25;100.00;58004.16;4913689;29;19923;-67
2023/04/02 00:15:27;;;;;;;;;;;;;;;-142.25;100.00;58004.16;4912645;28;19964;-68
2023/04/02 00:17:53;;;;;;;;;;;;;;;-142.25;100.00;58004.16;4912719;28;19923;-67
2023/04/02 00:20:19;;;;;;;;;;;;;;;-142.25;100.00;58004.16;4911800;29;19954;-68
2023/04/02 00:22:47;;;;;;;;;;;;;;;-142.25;100.00;58004.16;4911556;29;19977;-67
2023/04/02 00:25:13;;;;;;;;;;;;;;;-142.25;100.00;58004.16;4913540;29;20125;-68
2023/04/02 00:27:38;;;;;;;;;;;;;;;-142.25;100.00;58004.16;4913282;29;20380;-68
2023/04/02 00:30:05;;;;;;;;;;;;;;;-142.25;100.00;58004.16;4913961;29;19930;-68
2023/04/02 00:32:31;;;;;;;;;;;;;;;-142.25;100.00;58004.16;4912830;29;19923;-68
2023/04/02 00:34:58;;;;;;;;;;;;;;;-142.25;100.00;58004.16;4912660;29;19923;-68
2023/04/02 00:37:26;;;;;;;;;;;;;;;-142.25;100.00;58004.16;4912988;29;19949;-68
2023/04/02 00:39:57;;;;;;;;;;;;;;;-142.25;100.00;58004.16;4911889;29;20010;-68
2023/04/02 00:42:24;;;;;;;;;;;;;;;-142.25;100.00;58004.16;4913587;29;19949;-68
2023/04/02 00:44:49;;;;;;;;;;;;;;;-142.25;100.00;58004.16;4914605;29;19919;-68
2023/04/02 00:47:21;;;;;;;;;;;;;;;-142.25;100.00;58004.16;4912235;29;19973;-67
2023/04/02 00:49:49;;;;;;;;;;;;;;;-142.25;100.00;58004.16;4912050;29;19930;-67
2023/04/02 00:52:20;;;;;;;;;;;;;;;-142.25;100.00;58004.16;4910965;29;19958;-69
2023/04/02 00:54:51;;;;;;;;;;;;;;;-142.25;100.00;58004.16;4912911;29;19926;-69
2023/04/02 00:57:19;;;;;;;;;;;;;;;-142.25;100.00;58004.16;4926222;29;19927;-67
2023/04/02 01:00:07;;;;;;;;;;;;;;;-142.25;100.00;58004.16;4913298;29;20021;-67
2023/04/02 01:02:34;;;;;;;;;;;;;;;-142.25;100.00;58004.16;4913193;29;20403;-67
2023/04/02 01:05:01;;;;;;;;;;;;;;;-142.25;100.00;58004.16;4911190;29;19953;-67
2023/04/02 01:07:36;;;;;;;;;;;;;;;-142.25;100.00;58004.16;4912446;29;19971;-67
2023/04/02 01:10:04;;;;;;;;;;;;;;;-142.25;100.00;58004.16;4911906;29;19922;-67
2023/04/02 01:12:42;;;;;;;;;;;;;;;-142.25;100.00;58004.16;4913877;29;20033;-67
2023/04/02 01:15:20;;;;;;;;;;;;;;;-142.25;100.00;58004.16;4921637;29;20008;-67
2023/04/02 01:18:08;;;;;;;;;;;;;;;-142.25;100.00;58004.16;4913501;29;19927;-67
2023/04/02 01:20:40;;;;;;;;;;;;;;;-142.25;100.00;58004.16;4913014;29;20284;-67
2023/04/02 01:23:09;;;;;;;;;;;;;;;-142.25;100.00;58004.16;4913082;29;20223;-69
2023/04/02 01:25:40;;;;;;;;;;;;;;;-142.25;100.00;58004.16;4908527;29;19923;-67
2023/04/02 01:28:09;;;;;;;;;;;;;;;-142.25;100.00;58004.16;4909834;29;20426;-67
2023/04/02 01:30:35;;;;;;;;;;;;;;;-142.25;100.00;58004.16;4922637;29;20422;-67
2023/04/02 01:33:01;;;;;;;;;;;;;;;-142.25;100.00;58004.16;4913785;29;19930;-67
2023/04/02 01:35:30;;;;;;;;;;;;;;;-142.25;100.00;58004.16;4930073;29;20357;-67
2023/04/02 01:38:06;;;;;;;;;;;;;;;-142.25;100.00;58004.16;4927559;29;20080;-69
2023/04/02 01:40:34;;;;;;;;;;;;;;;-142.25;100.00;58004.16;4910331;29;19923;-68
2023/04/02 01:43:00;;;;;;;;;;;;;;;-142.25;100.00;58004.16;4924458;29;20499;-69
2023/04/02 01:45:27;;;;;;;;;;;;;;;-142.25;100.00;58004.16;4912262;29;19929;-69
2023/04/02 01:47:54;;;;;;;;;;;;;;;-142.25;100.00;58004.16;4912693;29;19923;-70
2023/04/02 01:50:32;;;;;;;;;;;;;;;-142.25;100.00;58004.16;4912803;29;20464;-69
2023/04/02 01:53:06;;;;;;;;;;;;;;;-142.25;100.00;58004.16;4911767;29;20026;-69
2023/04/02 01:55:39;;;;;;;;;;;;;;;-142.25;100.00;58004.16;4914820;29;19941;-69
2023/04/02 01:58:05;;;;;;;;;;;;;;;-142.25;100.00;58004.16;4910974;29;19934;-69
2023/04/02 02:00:31;;;;;;;;;;;;;;;-142.25;100.00;58004.16;4912671;29;20393;-68
2023/04/02 02:02:58;;;;;;;;;;;;;;;-142.25;100.00;58004.16;4920691;29;20065;-68
2023/04/02 02:05:25;;;;;;;;;;;;;;;-142.25;100.00;58004.16;4911609;29;20002;-68
2023/04/02 02:07:54;;;;;;;;;;;;;;;-142.25;100.00;58004.16;4913186;29;20022;-68
2023/04/02 02:10:40;;;;;;;;;;;;;;;-142.25;100.00;58004.16;4912011;29;19957;-68
2023/04/02 02:13:10;;;;;;;;;;;;;;;-142.25;100.00;58004.16;4910585;29;20042;-68
2023/04/02 02:15:35;;;;;;;;;;;;;;;-142.25;100.00;58004.16;4924849;29;19995;-67
2023/04/02 02:18:03;;;;;;;;;;;;;;;-142.25;100.00;58004.16;4918780;29;19998;-69
2023/04/02 02:20:29;;;;;;;;;;;;;;;-142.25;100.00;58004.16;4913337;29;19919;-66
2023/04/02 02:22:55;;;;;;;;;;;;;;;-142.25;100.00;58004.16;4909917;29;19930;-68
2023/04/02 02:25:23;;;;;;;;;;;;;;;-142.25;100.00;58004.16;4913930;29;19927;-68
2023/04/02 02:27:54;;;;;;;;;;;;;;;-142.25;100.00;58004.16;4912227;29;20011;-68
2023/04/02 02:30:28;;;;;;;;;;;;;;;-142.25;100.00;58004.16;4911771;29;19927;-67
2023/04/02 02:33:09;;;;;;;;;;;;;;;-142.25;100.00;58004.16;4921059;29;19933;-67
2023/04/02 02:35:43;;;;;;;;;;;;;;;-142.25;100.00;58004.16;4912776;29;19927;-67
2023/04/02 02:38:22;;;;;;;;;;;;;;;-142.25;100.00;58004.16;4927720;28;19923;-68
2023/04/02 02:40:51;;;;;;;;;;;;;;;-142.25;100.00;58004.16;4925461;28;20477;-67
2023/04/02 02:43:17;;;;;;;;;;;;;;;-142.25;100.00;58004.16;4931687;29;20369;-66
2023/04/02 02:45:45;;;;;;;;;;;;;;;-142.25;100.00;58004.16;4917634;29;20204;-67
2023/04/02 02:48:16;;;;;;;;;;;;;;;-142.25;100.00;58004.16;4915915;29;19923;-67
2023/04/02 02:50:43;;;;;;;;;;;;;;;-142.25;100.00;58004.16;4932461;29;19930;-67
2023/04/02 02:53:15;;;;;;;;;;;;;;;-142.25;100.00;58004.16;4916314;29;19922;-69
2023/04/02 02:55:40;;;;;;;;;;;;;;;-142.25;100.00;58004.16;4915993;29;20322;-67
2023/04/02 02:58:25;;;;;;;;;;;;;;;-142.25;100.00;58004.16;4915886;29;19933;-69
2023/04/02 03:01:23;;;;;;;;;;;;;;;-142.25;100.00;58004.16;4922469;28;19923;-66
2023/04/02 03:03:52;;;;;;;;;;;;;;;-142.25;100.00;58004.16;4930556;29;19933;-67
2023/04/02 03:06:19;;;;;;;;;;;;;;;-142.25;100.00;58004.16;4915231;29;20346;-67
2023/04/02 03:09:19;;;;;;;;;;;;;;;-142.25;100.00;58004.16;4931585;29;20388;-67
2023/04/02 03:11:54;;;;;;;;;;;;;;;-142.25;100.00;58004.16;4922848;29;19930;-67
2023/04/02 03:14:30;;;;;;;;;;;;;;;-142.25;100.00;58004.16;4920057;29;19930;-67
2023/04/02 03:17:03;;;;;;;;;;;;;;;-142.25;100.00;58004.16;4931413;29;20025;-67
2023/04/02 03:19:37;;;;;;;;;;;;;;;-142.25;100.00;58004.16;4928615;29;19964;-66
2023/04/02 03:22:03;;;;;;;;;;;;;;;-142.25;100.00;58004.16;4915997;29;19929;-67
2023/04/02 03:24:38;;;;;;;;;;;;;;;-142.25;100.00;58004.16;4913913;29;20335;-67
2023/04/02 03:27:10;;;;;;;;;;;;;;;-142.25;100.00;58004.16;4916317;29;19974;-67
2023/04/02 03:29:40;;;;;;;;;;;;;;;-142.25;100.00;58004.16;4925462;29;19927;-67
2023/04/02 03:32:15;;;;;;;;;;;;;;;-142.25;100.00;58004.16;4917230;29;19978;-66
2023/04/02 03:34:44;;;;;;;;;;;;;;;-142.25;100.00;58004.16;4931579;29;19931;-67
2023/04/02 03:37:14;;;;;;;;;;;;;;;-142.25;100.00;58004.16;4926351;29;19922;-67
2023/04/02 03:39:45;;;;;;;;;;;;;;;-142.25;100.00;58004.16;4923944;29;19923;-67
2023/04/02 03:42:18;;;;;;;;;;;;;;;-142.25;100.00;58004.16;4916432;29;19923;-67
2023/04/02 03:44:48;;;;;;;;;;;;;;;-142.25;100.00;58004.16;4914748;29;19930;-67
2023/04/02 03:47:17;;;;;;;;;;;;;;;-142.25;100.00;58004.16;4914429;29;19923;-67
2023/04/02 03:50:04;;;;;;;;;;;;;;;-142.25;100.00;58004.16;4925780;29;20196;-68
2023/04/02 03:52:33;;;;;;;;;;;;;;;-142.25;100.00;58004.16;4912887;29;20373;-67
2023/04/02 03:55:01;;;;;;;;;;;;;;;-142.25;100.00;58004.16;4924977;29;20021;-67
2023/04/02 03:57:59;;;;;;;;;;;;;;;-142.25;100.00;58004.16;4915804;29;19959;-67
2023/04/02 04:00:36;;;;;;;;;;;;;;;-142.25;100.00;58004.16;4909340;29;19966;-68
2023/04/02 04:03:08;;;;;;;;;;;;;;;-142.25;100.00;58004.16;4914135;29;19923;-67
2023/04/02 04:05:36;;;;;;;;;;;;;;;-142.25;100.00;58004.16;4914107;29;19923;-68
2023/04/02 04:08:11;;;;;;;;;;;;;;;-142.25;100.00;58004.16;4914544;29;19923;-67
2023/04/02 04:10:37;;;;;;;;;;;;;;;-142.25;100.00;58004.16;4928693;28;19934;-68
2023/04/02 04:13:16;;;;;;;;;;;;;;;-142.25;100.00;58004.16;4929833;29;19931;-67
2023/04/02 04:15:50;;;;;;;;;;;;;;;-142.25;100.00;58004.16;4914993;29;19973;-67
2023/04/02 04:18:33;;;;;;;;;;;;;;;-142.25;100.00;58004.16;4913832;29;20041;-67
2023/04/02 04:21:02;;;;;;;;;;;;;;;-142.25;100.00;58004.16;4915234;29;19926;-67
2023/04/02 04:23:37;;;;;;;;;;;;;;;-142.25;100.00;58004.16;4929780;29;20437;-66
2023/04/02 04:26:23;;;;;;;;;;;;;;;-142.25;100.00;58004.16;4929217;28;19930;-67
2023/04/02 04:28:57;;;;;;;;;;;;;;;-142.25;100.00;58004.16;4929706;29;20405;-67
2023/04/02 04:31:37;;;;;;;;;;;;;;;-142.25;100.00;58004.16;4927481;29;19954;-67
2023/04/02 04:34:14;;;;;;;;;;;;;;;-142.25;100.00;58004.16;4913283;29;20314;-68
2023/04/02 04:36:53;;;;;;;;;;;;;;;-142.25;100.00;58004.16;4928892;29;19938;-66
2023/04/02 04:39:40;;;;;;;;;;;;;;;-142.25;100.00;58004.16;4928804;29;19990;-67
2023/04/02 04:42:11;;;;;;;;;;;;;;;-142.25;100.00;58004.16;4925087;29;19950;-67
2023/04/02 04:44:42;;;;;;;;;;;;;;;-142.25;100.00;58004.16;4913037;29;19922;-69
2023/04/02 04:47:19;;;;;;;;;;;;;;;-142.25;100.00;58004.16;4928573;29;19930;-68
2023/04/02 04:49:48;;;;;;;;;;;;;;;-142.25;100.00;58004.16;4911001;29;19930;-68
2023/04/02 04:52:20;;;;;;;;;;;;;;;-142.25;100.00;58004.16;4925795;28;19943;-69
2023/04/02 04:54:47;;;;;;;;;;;;;;;-142.25;100.00;58004.16;4914312;29;19969;-67
2023/04/02 04:57:36;;;;;;;;;;;;;;;-142.25;100.00;58004.16;4927397;29;20009;-67
2023/04/02 05:00:13;;;;;;;;;;;;;;;-142.25;100.00;58004.16;4907902;29;20073;-67
2023/04/02 05:02:44;;;;;;;;;;;;;;;-142.25;100.00;58004.16;4910548;29;20289;-66
2023/04/02 05:05:18;;;;;;;;;;;;;;;-142.25;100.00;58004.16;4912704;29;19926;-67
2023/04/02 05:07:49;;;;;;;;;;;;;;;-142.25;100.00;58004.16;4911091;29;19923;-67
2023/04/02 05:10:23;;;;;;;;;;;;;;;-142.25;100.00;58004.16;4907538;29;20298;-67
2023/04/02 05:13:00;;;;;;;;;;;;;;;-142.25;100.00;58004.16;4913411;29;19926;-67
2023/04/02 05:15:32;;;;;;;;;;;;;;;-142.25;100.00;58004.16;4912742;29;19938;-68
2023/04/02 05:17:59;;;;;;;;;;;;;;;-142.25;100.00;58004.16;4926681;28;19929;-68
2023/04/02 05:20:33;;;;;;;;;;;;;;;-142.25;100.00;58004.16;4908307;29;20009;-68
2023/04/02 05:23:07;;;;;;;;;;;;;;;-142.25;100.00;58004.16;4907980;29;19923;-68
2023/04/02 05:25:33;;;;;;;;;;;;;;;-142.25;100.00;58004.16;4911447;29;19923;-68
2023/04/02 05:28:10;;;;;;;;;;;;;;;-142.25;100.00;58004.16;4909256;29;19927;-68
2023/04/02 05:30:39;;;;;;;;;;;;;;;-142.25;100.00;58004.16;4922538;29;20380;-68
2023/04/02 05:33:16;;;;;;;;;;;;;;;-142.25;100.00;58004.16;4913552;29;20065;-67
2023/04/02 05:35:44;;;;;;;;;;;;;;;-142.25;100.00;58004.16;4911380;29;20014;-67
2023/04/02 05:38:17;;;;;;;;;;;;;;;-142.25;100.00;58004.16;4909958;29;19933;-67
2023/04/02 05:40:46;;;;;;;;;;;;;;;-142.25;100.00;58004.16;4924585;29;20250;-67
2023/04/02 05:43:16;;;;;;;;;;;;;;;-142.25;100.00;58004.16;4910316;29;20043;-67
2023/04/02 05:45:44;;;;;;;;;;;;;;;-142.25;100.00;58004.16;4911741;29;20387;-67
2023/04/02 05:48:18;;;;;;;;;;;;;;;-142.25;100.00;58004.16;4911577;29;20386;-68
2023/04/02 05:50:47;;;;;;;;;;;;;;;-142.25;100.00;58004.16;4894925;29;20006;-67
2023/04/02 05:53:39;;;;;;;;;;;;;;;-142.25;100.00;58004.16;4911131;29;20086;-67
2023/04/02 05:56:23;;;;;;;;;;;;;;;-142.25;100.00;58004.16;4910456;29;19927;-67
2023/04/02 05:58:52;;;;;;;;;;;;;;;-142.25;100.00;58004.16;4919834;29;20302;-67
2023/04/02 06:01:32;;;;;;;;;;;;;;;-142.25;100.00;58004.16;4910230;29;19929;-66
2023/04/02 06:04:19;;;;;;;;;;;;;;;-142.25;100.00;58004.16;4911971;29;20019;-67
2023/04/02 06:06:51;;;;;;;;;;;;;;;-142.25;100.00;58004.16;4919172;29;19926;-67
2023/04/02 06:09:39;;;;;;;;;;;;;;;-142.25;100.00;58004.16;4924590;29;19922;-66
2023/04/02 06:12:35;;;;;;;;;;;;;;;-142.25;100.00;58004.16;4926362;28;19923;-65
2023/04/02 06:15:05;;;;;;;;;;;;;;;-142.25;100.00;58004.16;4920067;29;20014;-66
2023/04/02 06:17:32;;;;;;;;;;;;;;;-142.25;100.00;58004.16;4912766;29;19938;-67
2023/04/02 06:19:59;;;;;;;;;;;;;;;-142.25;100.00;58004.16;4928623;28;20440;-66
2023/04/02 06:22:36;;;;;;;;;;;;;;;-142.25;100.00;58004.16;4917824;29;19923;-66
2023/04/02 06:25:17;;;;;;;;;;;;;;;-142.25;100.00;58004.16;4921344;29;20013;-66
2023/04/02 06:27:45;;;;;;;;;;;;;;;-142.25;100.00;58004.16;4914545;29;19923;-68
2023/04/02 06:30:20;;;;;;;;;;;;;;;-142.25;100.00;58004.16;4913227;29;19923;-66
2023/04/02 06:32:48;;;;;;;;;;;;;;;-142.25;100.00;58004.16;4927010;28;19927;-66
2023/04/02 06:35:15;;;;;;;;;;;;;;;-142.25;100.00;58004.16;4921310;29;19923;-65
2023/04/02 06:37:45;;;;;;;;;;;;;;;-142.25;100.00;58004.16;4906050;29;19970;-58
2023/04/02 06:40:38;;;;;;;;;;;;;;;-142.25;100.00;58004.16;4913877;29;20379;-60
2023/04/02 06:43:32;;;;;;;;;;;;;;;-142.25;100.00;58004.16;4917099;29;19931;-61
2023/04/02 06:46:25;;;;;;;;;;;;;;;-142.25;100.00;58004.16;4912107;29;19930;-61
2023/04/02 06:49:03;;;;;;;;;;;;;;;-142.25;100.00;58004.16;4911167;29;19946;-60
2023/04/02 06:51:31;;;;;;;;;;;;;;;-142.25;100.00;58004.16;4913175;29;20558;-61
2023/04/02 06:53:57;;;;;;;;;;;;;;;-142.25;100.00;58004.16;4922097;29;20002;-60
2023/04/02 06:56:30;;;;;;;;;;;;;;;-142.25;100.00;58004.16;4929362;29;19923;-60
2023/04/02 06:58:57;;;;;;;;;;;;;;;-142.25;100.00;58004.16;4913968;29;20424;-61
2023/04/02 07:01:25;;;;;;;;;;;;;;;-142.25;100.00;58004.16;4912275;29;19923;-60
2023/04/02 07:03:51;;;;;;;;;;;;;;;-142.25;100.00;58004.16;4914008;29;20270;-60
2023/04/02 07:06:23;;;;;;;;;;;;;;;-142.25;100.00;58004.16;4929375;29;19945;-62
2023/04/02 07:08:51;;;;;;;;;;;;;;;-142.25;100.00;58004.16;4912376;29;20489;-62
2023/04/02 07:11:20;;;;;;;;;;;;;;;-142.25;100.00;58004.16;4929920;29;19946;-62
2023/04/02 07:13:48;;;;;;;;;;;;;;;-142.25;100.00;58004.16;4929103;29;19927;-62
2023/04/02 07:16:14;;;;;;;;;;;;;;;-142.25;100.00;58004.16;4912994;29;20326;-61
2023/04/02 07:18:40;;;;;;;;;;;;;;;-142.25;100.00;58004.16;4913151;29;19974;-62
2023/04/02 07:21:05;;;;;;;;;;;;;;;-142.25;100.00;58004.16;4913128;29;20017;-60
2023/04/02 07:23:31;;;;;;;;;;;;;;;-142.25;100.00;58004.16;4913545;29;20056;-60
2023/04/02 07:25:57;;;;;;;;;;;;;;;-142.25;100.00;58004.16;4921335;29;20353;-60
2023/04/02 07:28:23;;;;;;;;;;;;;;;-142.25;100.00;58004.16;4928262;29;19934;-62
2023/04/02 07:30:49;;;;;;;;;;;;;;;-142.25;100.00;58004.16;4914517;29;19922;-62
2023/04/02 07:33:15;;;;;;;;;;;;;;;-142.25;100.00;58004.16;4929996;29;19927;-60
2023/04/02 07:35:41;;;;;;;;;;;;;;;-142.25;100.00;58004.16;4913631;28;19930;-62
2023/04/02 07:38:07;;;;;;;;;;;;;;;-142.25;100.00;58004.16;4914860;29;19927;-61
2023/04/02 07:40:32;;;;;;;;;;;;;;;-142.25;100.00;58004.16;4913740;29;20258;-60
2023/04/02 07:42:59;;;;;;;;;;;;;;;-142.25;100.00;58004.16;4911932;29;20766;-61
2023/04/02 07:45:24;;;;;;;;;;;;;;;-142.25;100.00;58004.16;4911152;29;19981;-62
2023/04/02 07:47:50;;;;;;;;;;;;;;;-142.25;100.00;58004.16;4913721;29;19927;-60
2023/04/02 07:50:16;;;;;;;;;;;;;;;-142.25;100.00;58004.16;4913660;29;19937;-62
2023/04/02 07:52:42;;;;;;;;;;;;;;;-142.25;100.00;58004.16;4912743;29;20269;-62
2023/04/02 07:55:09;;;;;;;;;;;;;;;-142.25;100.00;58004.16;4915410;29;20032;-60
2023/04/02 07:57:48;;;;;;;;;;;;;;;-142.25;100.00;58004.16;4913412;29;20378;-60
2023/04/02 08:00:14;;;;;;;;;;;;;;;-142.25;100.00;58004.16;4913484;29;19923;-61
2023/04/02 08:02:40;;;;;;;;;;;;;;;-142.25;100.00;58004.16;4913747;29;19998;-61
2023/04/02 08:05:06;;;;;;;;;;;;;;;-142.25;100.00;58004.16;4913298;29;19997;-61
2023/04/02 08:07:32;;;;;;;;;;;;;;;-142.25;100.00;58004.16;4914960;29;19933;-61
2023/04/02 08:09:57;;;;;;;;;;;;;;;-142.25;100.00;58004.16;4912570;29;19927;-65
2023/04/02 08:12:23;;;;;;;;;;;;;;;-142.25;100.00;58004.16;4913800;29;19922;-63
2023/04/02 08:14:48;;;;;;;;;;;;;;;-142.25;100.00;58004.16;4914037;29;20377;-67
2023/04/02 08:17:14;;;;;;;;;;;;;;;-142.25;100.00;58004.16;4912754;29;20339;-67
2023/04/02 08:19:40;;;;;;;;;;;;;;;-142.25;100.00;58004.16;4913434;29;19930;-65
2023/04/02 08:22:06;;;;;;;;;;;;;;;-142.25;100.00;58004.16;4914133;29;19938;-63
2023/04/02 08:24:31;;;;;;;;;;;;;;;-142.25;100.00;58004.16;4913375;29;20367;-66
2023/04/02 08:26:56;;;;;;;;;;;;;;;-142.25;100.00;58004.16;4912004;29;20026;-64
2023/04/02 08:29:22;;;;;;;;;;;;;;;-142.25;100.00;58004.16;4912782;29;20376;-65
2023/04/02 08:31:50;;;;;;;;;;;;;;;-142.25;100.00;58004.16;4913507;29;19927;-65
2023/04/02 08:34:16;;;;;;;;;;;;;;;-142.25;100.00;58004.16;4920608;29;20079;-65
2023/04/02 08:36:43;;;;;;;;;;;;;;;-142.25;100.00;58004.16;4926768;28;19927;-64
2023/04/02 08:39:10;;;;;;;;;;;;;;;-142.25;100.00;58004.16;4912824;29;19923;-65
2023/04/02 08:41:49;;;;;;;;;;;;;;;-142.25;100.00;58004.16;4910744;29;19927;-67
2023/04/02 08:44:21;;;;;;;;;;;;;;;-142.25;100.00;58004.16;4924049;29;19922;-65
2023/04/02 08:46:50;;;;;;;;;;;;;;;-142.25;100.00;58004.16;4913170;29;19977;-66
2023/04/02 08:49:18;;;;;;;;;;;;;;;-142.25;100.00;58004.16;4913696;29;20006;-63
2023/04/02 08:51:45;;;;;;;;;;;;;;;-142.25;100.00;58004.16;4913333;29;19937;-66
2023/04/02 08:54:29;;;;;;;;;;;;;;;-142.25;100.00;58004.16;4911837;29;19923;-66
2023/04/02 08:57:05;;;;;;;;;;;;;;;-142.25;100.00;58004.16;4912736;29;20100;-65
2023/04/02 08:59:36;;;;;;;;;;;;;;;-142.25;100.00;58004.16;4912344;29;19922;-64
2023/04/02 09:02:01;;;;;;;;;;;;;;;-142.25;100.00;58004.16;4912726;29;19930;-64
2023/04/02 09:04:27;;;;;;;;;;;;;;;-142.25;100.00;58004.16;4912089;29;19923;-63
2023/04/02 09:06:54;;;;;;;;;;;;;;;-142.25;100.00;58004.16;4913280;29;20405;-63
2023/04/02 09:09:21;;;;;;;;;;;;;;;-142.25;100.00;58004.16;4911219;29;20330;-60
2023/04/02 09:11:46;;;;;;;;;;;;;;;-142.25;100.00;58004.16;4912133;29;19950;-65
2023/04/02 09:14:15;;;;;;;;;;;;;;;-142.25;100.00;58004.16;4913171;29;20186;-65
2023/04/02 09:16:47;;;;;;;;;;;;;;;-142.25;100.00;58004.16;4917934;29;19934;-65
2023/04/02 09:19:18;;;;;;;;;;;;;;;-142.25;100.00;58004.16;4925814;29;19926;-65
2023/04/02 09:21:55;;;;;;;;;;;;;;;-142.25;100.00;58004.16;4912584;29;20309;-67
2023/04/02 09:24:21;;;;;;;;;;;;;;;-142.25;100.00;58004.16;4911821;29;19929;-66
2023/04/02 09:26:46;;;;;;;;;;;;;;;-142.25;100.00;58004.16;4912028;29;19923;-66
2023/04/02 09:29:12;;;;;;;;;;;;;;;-142.25;100.00;58004.16;4909010;29;20064;-67
2023/04/02 09:31:42;;;;;;;;;;;;;;;-142.25;100.00;58004.16;4907635;29;19954;-68
2023/04/02 09:34:26;;;;;;;;;;;;;;;-142.25;100.00;58004.16;4912169;29;20246;-69
2023/04/02 09:36:51;;;;;;;;;;;;;;;-142.25;100.00;58004.16;4908344;29;19927;-69
2023/04/02 09:39:19;;;;;;;;;;;;;;;-142.25;100.00;58004.16;4915735;29;19934;-72
2023/04/02 09:41:45;;;;;;;;;;;;;;;-142.25;100.00;58004.16;4906739;29;20014;-70
2023/04/02 09:44:11;;;;;;;;;;;;;;;-142.25;100.00;58004.16;4911017;29;19923;-70
2023/04/02 09:46:36;;;;;;;;;;;;;;;-142.25;100.00;58004.16;4908602;29;19957;-69
2023/04/02 09:49:02;;;;;;;;;;;;;;;-142.25;100.00;58004.16;4909886;29;20359;-72
2023/04/02 09:51:33;;;;;;;;;;;;;;;-142.25;100.00;58004.16;4911852;29;20479;-68
2023/04/02 09:54:01;;;;;;;;;;;;;;;-142.25;100.00;58004.16;4912359;28;19927;-70
2023/04/02 09:56:27;;;;;;;;;;;;;;;-142.25;100.00;58004.16;4907361;29;19926;-64
2023/04/02 09:59:11;;;;;;;;;;;;;;;-142.25;100.00;58004.16;4918621;29;19934;-77
2023/04/02 10:01:38;;;;;;;;;;;;;;;-142.25;100.00;58004.16;4905941;29;19970;-75
2023/04/02 10:04:05;;;;;;;;;;;;;;;-142.25;100.00;58004.16;4905711;29;19938;-74
2023/04/02 10:06:32;;;;;;;;;;;;;;;-142.25;100.00;58004.16;4910320;29;19923;-75
2023/04/02 10:09:17;;;;;;;;;;;;;;;-142.25;100.00;58004.16;4912959;29;19923;-75
2023/04/02 10:11:43;;;;;;;;;;;;;;;-142.25;100.00;58004.16;4909786;29;19919;-75
2023/04/02 10:14:11;;;;;;;;;;;;;;;-142.25;100.00;58004.16;4922143;29;20293;-74
2023/04/02 10:16:47;;;;;;;;;;;;;;;-142.25;100.00;58004.16;4910593;29;20293;-74
2023/04/02 10:19:27;;;;;;;;;;;;;;;-142.25;100.00;58004.16;4910314;29;19923;-77
2023/04/02 10:21:53;;;;;;;;;;;;;;;-142.25;100.00;58004.16;4908206;29;19919;-75
2023/04/02 10:24:19;;;;;;;;;;;;;;;-142.25;100.00;58004.16;4911942;29;20461;-75
2023/04/02 10:26:57;;;;;;;;;;;;;;;-142.25;100.00;58004.16;4912064;29;19931;-65
2023/04/02 10:29:40;;;;;;;;;;;;;;;-142.25;100.00;58004.16;4907764;29;19929;-71
2023/04/02 10:32:10;;;;;;;;;;;;;;;-142.25;100.00;58004.16;4908315;29;19926;-65
2023/04/02 10:34:35;;;;;;;;;;;;;;;-142.25;100.00;58004.16;4907786;28;19973;-67
2023/04/02 10:37:10;;;;;;;;;;;;;;;-142.25;100.00;58004.16;4898153;29;19978;-68
2023/04/02 10:39:42;;;;;;;;;;;;;;;-142.25;100.00;58004.16;4911948;29;20401;-68
2023/04/02 10:42:23;;;;;;;;;;;;;;;-142.25;100.00;58004.16;4911040;29;20477;-69
2023/04/02 10:44:59;;;;;;;;;;;;;;;-142.25;100.00;58004.16;4911474;29;19926;-68
2023/04/02 10:47:41;;;;;;;;;;;;;;;-142.25;100.00;58004.16;4912962;29;19923;-68
2023/04/02 10:50:06;;;;;;;;;;;;;;;-142.25;100.00;58004.16;4910322;29;20421;-68
2023/04/02 10:52:38;;;;;;;;;;;;;;;-142.25;100.00;58004.16;4913843;29;19922;-68
2023/04/02 10:55:12;;;;;;;;;;;;;;;-142.25;100.00;58004.16;4911178;29;20278;-69
2023/04/02 10:57:39;;;;;;;;;;;;;;;-142.25;100.00;58004.16;4912683;29;19927;-68
2023/04/02 11:00:11;;;;;;;;;;;;;;;-142.25;100.00;58004.16;4912971;29;19930;-67
2023/04/02 11:02:37;;;;;;;;;;;;;;;-142.25;100.00;58004.16;4916554;29;20449;-67
2023/04/02 11:05:12;;;;;;;;;;;;;;;-142.25;100.00;58004.16;4915592;29;19919;-67
2023/04/02 11:07:47;;;;;;;;;;;;;;;-142.25;100.00;58004.16;4913900;29;20320;-67
2023/04/02 11:10:15;;;;;;;;;;;;;;;-142.25;100.00;58004.16;4913852;29;19923;-67
2023/04/02 11:12:46;;;;;;;;;;;;;;;-142.25;100.00;58004.16;4916018;29;19922;-68
2023/04/02 11:15:16;;;;;;;;;;;;;;;-142.25;100.00;58004.16;4916482;29;19929;-67
2023/04/02 11:17:43;;;;;;;;;;;;;;;-142.25;100.00;58004.16;4915380;29;19930;-66
2023/04/02 11:20:27;;;;;;;;;;;;;;;-142.25;100.00;58004.16;4915341;29;20044;-66
2023/04/02 11:23:09;;;;;;;;;;;;;;;-142.25;100.00;58004.16;4913675;29;20176;-66
2023/04/02 11:25:35;;;;;;;;;;;;;;;-142.25;100.00;58004.16;4910024;29;20115;-67
2023/04/02 11:28:13;;;;;;;;;;;;;;;-142.25;100.00;58004.16;4913347;29;19923;-67
2023/04/02 11:30:39;;;;;;;;;;;;;;;-142.25;100.00;58004.16;4915878;29;19946;-67
2023/04/02 11:33:38;;;;;;;;;;;;;;;-142.25;100.00;58004.16;4913007;29;20457;-67
2023/04/02 11:36:23;;;;;;;;;;;;;;;-142.25;100.00;58004.16;4917592;29;19922;-68
2023/04/02 11:38:50;;;;;;;;;;;;;;;-142.25;100.00;58004.16;4915994;29;20561;-65
2023/04/02 11:41:35;;;;;;;;;;;;;;;-142.25;100.00;58004.16;4915294;29;20320;-60
2023/04/02 11:44:01;;;;;;;;;;;;;;;-142.25;100.00;58004.16;4913078;29;19922;-69
2023/04/02 11:46:33;;;;;;;;;;;;;;;-142.25;100.00;58004.16;4915188;29;20325;-65
2023/04/02 11:49:17;;;;;;;;;;;;;;;-142.25;100.00;58004.16;4913865;28;19922;-65
2023/04/02 11:51:43;;;;;;;;;;;;;;;-142.25;100.00;58004.16;4913133;29;19926;-63
2023/04/02 11:54:20;;;;;;;;;;;;;;;-142.25;100.00;58004.16;4915027;29;19926;-67
2023/04/02 11:57:12;;;;;;;;;;;;;;;-142.25;100.00;58004.16;4914095;29;20362;-70
2023/04/02 11:59:47;;;;;;;;;;;;;;;-142.25;100.00;58004.16;4914383;29;19990;-67
2023/04/02 12:02:13;;;;;;;;;;;;;;;-142.25;100.00;58004.16;4914413;29;20474;-65
2023/04/02 12:04:54;;;;;;;;;;;;;;;-142.25;100.00;58004.16;4914052;29;20017;-69
2023/04/02 12:07:35;;;;;;;;;;;;;;;-142.25;100.00;58004.16;4916909;29;19927;-69
2023/04/02 12:10:04;;;;;;;;;;;;;;;-142.25;100.00;58004.16;4923279;29;20026;-68
2023/04/02 12:12:39;;;;;;;;;;;;;;;-142.25;100.00;58004.16;4913692;28;19930;-68
2023/04/02 12:15:23;;;;;;;;;;;;;;;-142.25;100.00;58004.16;4913380;29;19922;-67
2023/04/02 12:17:49;;;;;;;;;;;;;;;-142.25;100.00;58004.16;4916410;29;20082;-68
2023/04/02 12:20:20;;;;;;;;;;;;;;;-142.25;100.00;58004.16;4912705;29;19925;-68
2023/04/02 12:22:48;;;;;;;;;;;;;;;-142.25;100.00;58004.16;4916638;29;20104;-68
2023/04/02 12:25:19;;;;;;;;;;;;;;;-142.25;100.00;58004.16;4927313;29;19919;-68
2023/04/02 12:27:45;;;;;;;;;;;;;;;-142.25;100.00;58004.16;4915267;29;19926;-68
2023/04/02 12:30:13;;;;;;;;;;;;;;;-142.25;100.00;58004.16;4913991;29;20279;-68
2023/04/02 12:32:39;;;;;;;;;;;;;;;-142.25;100.00;58004.16;4915010;29;20481;-67
2023/04/02 12:35:05;;;;;;;;;;;;;;;-142.25;100.00;58004.16;4913609;29;19923;-68
2023/04/02 12:37:30;;;;;;;;;;;;;;;-142.25;100.00;58004.16;4919768;29;19930;-67
2023/04/02 12:39:57;;;;;;;;;;;;;;;-142.25;100.00;58004.16;4913062;29;20302;-68